sensor_id;sensor_type;location;lat;lon;timestamp;P1;durP1;ratioP1;P2;durP2;ratioP2
44120;SDS011;29783;52.504;13.478;2024-02-26T00:01:40;20.85;;;13.07;;
44120;SDS011;29783;52.504;13.478;2024-02-26T00:04:05;20.63;;;12.63;;
44120;SDS011;29783;52.504;13.478;2024-02-26T00:06:31;16.85;;;12.35;;
44120;SDS011;29783;52.504;13.478;2024-02-26T00:08:57;21.38;;;12.05;;
44120;SDS011;29783;52.504;13.478;2024-02-26T00:11:23;17.17;;;12.02;;
44120;SDS011;29783;52.504;13.478;2024-02-26T00:13:48;18.35;;;12.10;;
44120;SDS011;29783;52.504;13.478;2024-02-26T00:16:14;17.08;;;11.43;;
44120;SDS011;29783;52.504;13.478;2024-02-26T00:18:40;17.10;;;12.18;;
44120;SDS011;29783;52.504;13.478;2024-02-26T00:21:05;17.45;;;11.52;;
44120;SDS011;29783;52.504;13.478;2024-02-26T00:23:31;20.30;;;12.48;;
44120;SDS011;29783;52.504;13.478;2024-02-26T00:25:56;15.10;;;11.27;;
44120;SDS011;29783;52.504;13.478;2024-02-26T00:28:22;25.70;;;12.38;;
44120;SDS011;29783;52.504;13.478;2024-02-26T00:30:49;16.20;;;11.93;;
44120;SDS011;29783;52.504;13.478;2024-02-26T00:33:16;19.52;;;11.20;;
44120;SDS011;29783;52.504;13.478;2024-02-26T00:35:42;18.98;;;11.25;;
44120;SDS011;29783;52.504;13.478;2024-02-26T00:38:07;16.60;;;10.13;;
44120;SDS011;29783;52.504;13.478;2024-02-26T00:40:33;18.40;;;10.85;;
44120;SDS011;29783;52.504;13.478;2024-02-26T00:42:59;15.82;;;10.13;;
44120;SDS011;29783;52.504;13.478;2024-02-26T00:45:25;13.73;;;9.60;;
44120;SDS011;29783;52.504;13.478;2024-02-26T00:47:50;14.05;;;9.55;;
44120;SDS011;29783;52.504;13.478;2024-02-26T00:50:16;12.00;;;9.07;;
44120;SDS011;29783;52.504;13.478;2024-02-26T00:52:42;16.75;;;8.38;;
44120;SDS011;29783;52.504;13.478;2024-02-26T00:55:07;17.20;;;8.35;;
44120;SDS011;29783;52.504;13.478;2024-02-26T00:57:33;16.42;;;8.20;;
44120;SDS011;29783;52.504;13.478;2024-02-26T00:59:59;18.88;;;8.70;;
44120;SDS011;29783;52.504;13.478;2024-02-26T01:02:25;10.88;;;8.60;;
44120;SDS011;29783;52.504;13.478;2024-02-26T01:04:51;13.57;;;8.52;;
44120;SDS011;29783;52.504;13.478;2024-02-26T01:07:17;13.10;;;8.68;;
44120;SDS011;29783;52.504;13.478;2024-02-26T01:09:42;16.13;;;9.73;;
44120;SDS011;29783;52.504;13.478;2024-02-26T01:12:08;12.32;;;9.25;;
44120;SDS011;29783;52.504;13.478;2024-02-26T01:14:34;13.82;;;8.65;;
44120;SDS011;29783;52.504;13.478;2024-02-26T01:16:59;17.95;;;8.25;;
44120;SDS011;29783;52.504;13.478;2024-02-26T01:19:25;12.38;;;8.15;;
44120;SDS011;29783;52.504;13.478;2024-02-26T01:21:50;13.68;;;8.52;;
44120;SDS011;29783;52.504;13.478;2024-02-26T01:24:16;11.10;;;7.95;;
44120;SDS011;29783;52.504;13.478;2024-02-26T01:26:42;11.27;;;7.55;;
44120;SDS011;29783;52.504;13.478;2024-02-26T01:29:08;11.07;;;7.47;;
44120;SDS011;29783;52.504;13.478;2024-02-26T01:31:34;12.48;;;7.30;;
44120;SDS011;29783;52.504;13.478;2024-02-26T01:34:00;12.68;;;7.10;;
44120;SDS011;29783;52.504;13.478;2024-02-26T01:36:26;16.35;;;7.35;;
44120;SDS011;29783;52.504;13.478;2024-02-26T01:38:52;12.55;;;7.47;;
44120;SDS011;29783;52.504;13.478;2024-02-26T01:41:17;9.25;;;7.60;;
44120;SDS011;29783;52.504;13.478;2024-02-26T01:43:43;17.55;;;7.43;;
44120;SDS011;29783;52.504;13.478;2024-02-26T01:46:12;15.60;;;7.68;;
44120;SDS011;29783;52.504;13.478;2024-02-26T01:48:43;14.65;;;7.63;;
44120;SDS011;29783;52.504;13.478;2024-02-26T01:51:10;9.68;;;7.60;;
44120;SDS011;29783;52.504;13.478;2024-02-26T01:53:39;15.10;;;7.68;;
44120;SDS011;29783;52.504;13.478;2024-02-26T01:56:05;10.30;;;6.97;;
44120;SDS011;29783;52.504;13.478;2024-02-26T01:58:30;8.98;;;7.43;;
44120;SDS011;29783;52.504;13.478;2024-02-26T02:00:57;9.30;;;7.43;;
44120;SDS011;29783;52.504;13.478;2024-02-26T02:03:24;13.18;;;7.78;;
44120;SDS011;29783;52.504;13.478;2024-02-26T02:05:50;13.05;;;8.38;;
44120;SDS011;29783;52.504;13.478;2024-02-26T02:08:15;12.65;;;8.38;;
44120;SDS011;29783;52.504;13.478;2024-02-26T02:10:44;13.77;;;8.82;;
44120;SDS011;29783;52.504;13.478;2024-02-26T02:13:12;12.65;;;8.07;;
44120;SDS011;29783;52.504;13.478;2024-02-26T02:15:38;17.90;;;8.00;;
44120;SDS011;29783;52.504;13.478;2024-02-26T02:18:05;16.15;;;8.38;;
44120;SDS011;29783;52.504;13.478;2024-02-26T02:20:31;11.98;;;7.75;;
44120;SDS011;29783;52.504;13.478;2024-02-26T02:23:00;14.50;;;7.90;;
44120;SDS011;29783;52.504;13.478;2024-02-26T02:25:26;14.95;;;8.65;;
44120;SDS011;29783;52.504;13.478;2024-02-26T02:27:52;14.05;;;8.68;;
44120;SDS011;29783;52.504;13.478;2024-02-26T02:30:19;11.15;;;7.80;;
44120;SDS011;29783;52.504;13.478;2024-02-26T02:32:46;10.77;;;8.00;;
44120;SDS011;29783;52.504;13.478;2024-02-26T02:35:12;10.88;;;8.02;;
44120;SDS011;29783;52.504;13.478;2024-02-26T02:37:38;15.20;;;8.20;;
44120;SDS011;29783;52.504;13.478;2024-02-26T02:40:03;9.80;;;7.60;;
44120;SDS011;29783;52.504;13.478;2024-02-26T02:42:30;9.73;;;6.53;;
44120;SDS011;29783;52.504;13.478;2024-02-26T02:44:56;10.50;;;6.55;;
44120;SDS011;29783;52.504;13.478;2024-02-26T02:47:21;9.25;;;5.82;;
44120;SDS011;29783;52.504;13.478;2024-02-26T02:49:47;12.77;;;6.80;;
44120;SDS011;29783;52.504;13.478;2024-02-26T02:52:13;9.38;;;6.25;;
44120;SDS011;29783;52.504;13.478;2024-02-26T02:54:39;7.53;;;5.68;;
44120;SDS011;29783;52.504;13.478;2024-02-26T02:57:06;7.55;;;5.63;;
44120;SDS011;29783;52.504;13.478;2024-02-26T02:59:33;8.27;;;6.05;;
44120;SDS011;29783;52.504;13.478;2024-02-26T03:01:58;8.82;;;6.50;;
44120;SDS011;29783;52.504;13.478;2024-02-26T03:04:24;7.75;;;5.13;;
44120;SDS011;29783;52.504;13.478;2024-02-26T03:06:50;11.02;;;6.82;;
44120;SDS011;29783;52.504;13.478;2024-02-26T03:09:15;9.13;;;6.15;;
44120;SDS011;29783;52.504;13.478;2024-02-26T03:11:41;7.00;;;5.95;;
44120;SDS011;29783;52.504;13.478;2024-02-26T03:14:07;8.48;;;6.53;;
44120;SDS011;29783;52.504;13.478;2024-02-26T03:16:33;9.18;;;6.32;;
44120;SDS011;29783;52.504;13.478;2024-02-26T03:18:59;9.50;;;6.82;;
44120;SDS011;29783;52.504;13.478;2024-02-26T03:21:25;9.85;;;6.70;;
44120;SDS011;29783;52.504;13.478;2024-02-26T03:23:50;8.23;;;6.18;;
44120;SDS011;29783;52.504;13.478;2024-02-26T03:26:16;9.48;;;6.13;;
44120;SDS011;29783;52.504;13.478;2024-02-26T03:28:41;8.13;;;5.97;;
44120;SDS011;29783;52.504;13.478;2024-02-26T03:31:07;10.98;;;6.78;;
44120;SDS011;29783;52.504;13.478;2024-02-26T03:33:33;8.55;;;6.40;;
44120;SDS011;29783;52.504;13.478;2024-02-26T03:35:59;10.93;;;6.82;;
44120;SDS011;29783;52.504;13.478;2024-02-26T03:38:25;8.65;;;6.88;;
44120;SDS011;29783;52.504;13.478;2024-02-26T03:40:50;9.52;;;6.80;;
44120;SDS011;29783;52.504;13.478;2024-02-26T03:43:16;15.43;;;7.57;;
44120;SDS011;29783;52.504;13.478;2024-02-26T03:45:42;9.85;;;6.82;;
44120;SDS011;29783;52.504;13.478;2024-02-26T03:48:07;9.48;;;7.22;;
44120;SDS011;29783;52.504;13.478;2024-02-26T03:50:33;9.30;;;7.65;;
44120;SDS011;29783;52.504;13.478;2024-02-26T03:52:59;12.75;;;7.22;;
44120;SDS011;29783;52.504;13.478;2024-02-26T03:55:25;13.18;;;7.38;;
44120;SDS011;29783;52.504;13.478;2024-02-26T03:57:54;10.32;;;6.88;;
44120;SDS011;29783;52.504;13.478;2024-02-26T04:00:19;10.75;;;7.45;;
44120;SDS011;29783;52.504;13.478;2024-02-26T04:02:46;10.07;;;7.53;;
44120;SDS011;29783;52.504;13.478;2024-02-26T04:05:12;11.68;;;8.15;;
44120;SDS011;29783;52.504;13.478;2024-02-26T04:07:39;13.43;;;8.07;;
44120;SDS011;29783;52.504;13.478;2024-02-26T04:10:11;23.17;;;8.70;;
44120;SDS011;29783;52.504;13.478;2024-02-26T04:12:40;9.40;;;7.78;;
44120;SDS011;29783;52.504;13.478;2024-02-26T04:15:09;10.68;;;8.13;;
44120;SDS011;29783;52.504;13.478;2024-02-26T04:17:36;11.30;;;8.88;;
44120;SDS011;29783;52.504;13.478;2024-02-26T04:20:03;18.25;;;8.25;;
44120;SDS011;29783;52.504;13.478;2024-02-26T04:22:30;12.27;;;9.50;;
44120;SDS011;29783;52.504;13.478;2024-02-26T04:24:56;18.30;;;9.60;;
44120;SDS011;29783;52.504;13.478;2024-02-26T04:27:21;12.63;;;9.35;;
44120;SDS011;29783;52.504;13.478;2024-02-26T04:29:47;12.25;;;9.93;;
44120;SDS011;29783;52.504;13.478;2024-02-26T04:32:13;14.82;;;10.00;;
44120;SDS011;29783;52.504;13.478;2024-02-26T04:34:38;15.48;;;11.00;;
44120;SDS011;29783;52.504;13.478;2024-02-26T04:37:04;14.38;;;10.93;;
44120;SDS011;29783;52.504;13.478;2024-02-26T04:39:29;18.23;;;9.80;;
44120;SDS011;29783;52.504;13.478;2024-02-26T04:41:55;17.25;;;10.60;;
44120;SDS011;29783;52.504;13.478;2024-02-26T04:44:21;14.07;;;10.65;;
44120;SDS011;29783;52.504;13.478;2024-02-26T04:46:46;16.90;;;10.90;;
44120;SDS011;29783;52.504;13.478;2024-02-26T04:49:12;12.18;;;10.07;;
44120;SDS011;29783;52.504;13.478;2024-02-26T04:51:37;15.35;;;10.48;;
44120;SDS011;29783;52.504;13.478;2024-02-26T04:54:03;13.93;;;10.80;;
44120;SDS011;29783;52.504;13.478;2024-02-26T04:56:28;15.20;;;10.98;;
44120;SDS011;29783;52.504;13.478;2024-02-26T04:58:54;15.75;;;12.50;;
44120;SDS011;29783;52.504;13.478;2024-02-26T05:01:20;19.83;;;11.98;;
44120;SDS011;29783;52.504;13.478;2024-02-26T05:03:45;20.25;;;12.77;;
44120;SDS011;29783;52.504;13.478;2024-02-26T05:06:11;16.08;;;12.07;;
44120;SDS011;29783;52.504;13.478;2024-02-26T05:08:38;17.25;;;12.95;;
44120;SDS011;29783;52.504;13.478;2024-02-26T05:11:03;20.00;;;14.13;;
44120;SDS011;29783;52.504;13.478;2024-02-26T05:13:30;18.20;;;13.32;;
44120;SDS011;29783;52.504;13.478;2024-02-26T05:15:56;18.83;;;13.65;;
44120;SDS011;29783;52.504;13.478;2024-02-26T05:18:21;18.20;;;14.13;;
44120;SDS011;29783;52.504;13.478;2024-02-26T05:20:47;20.08;;;14.38;;
44120;SDS011;29783;52.504;13.478;2024-02-26T05:23:13;18.40;;;14.75;;
44120;SDS011;29783;52.504;13.478;2024-02-26T05:25:38;17.48;;;14.30;;
44120;SDS011;29783;52.504;13.478;2024-02-26T05:28:04;19.33;;;13.80;;
44120;SDS011;29783;52.504;13.478;2024-02-26T05:30:30;18.63;;;15.35;;
44120;SDS011;29783;52.504;13.478;2024-02-26T05:32:55;19.45;;;14.02;;
44120;SDS011;29783;52.504;13.478;2024-02-26T05:35:21;23.77;;;15.38;;
44120;SDS011;29783;52.504;13.478;2024-02-26T05:37:46;20.42;;;13.80;;
44120;SDS011;29783;52.504;13.478;2024-02-26T05:40:12;22.80;;;14.82;;
44120;SDS011;29783;52.504;13.478;2024-02-26T05:42:38;19.95;;;15.30;;
44120;SDS011;29783;52.504;13.478;2024-02-26T05:45:04;19.75;;;16.15;;
44120;SDS011;29783;52.504;13.478;2024-02-26T05:47:34;20.45;;;14.57;;
44120;SDS011;29783;52.504;13.478;2024-02-26T05:50:00;23.08;;;16.55;;
44120;SDS011;29783;52.504;13.478;2024-02-26T05:52:26;25.65;;;16.45;;
44120;SDS011;29783;52.504;13.478;2024-02-26T05:54:54;25.60;;;17.00;;
44120;SDS011;29783;52.504;13.478;2024-02-26T05:57:19;25.02;;;16.67;;
44120;SDS011;29783;52.504;13.478;2024-02-26T05:59:45;24.20;;;17.45;;
44120;SDS011;29783;52.504;13.478;2024-02-26T06:02:11;21.02;;;17.15;;
44120;SDS011;29783;52.504;13.478;2024-02-26T06:04:37;21.67;;;18.33;;
44120;SDS011;29783;52.504;13.478;2024-02-26T06:07:02;21.48;;;18.42;;
44120;SDS011;29783;52.504;13.478;2024-02-26T06:09:28;24.10;;;18.48;;
44120;SDS011;29783;52.504;13.478;2024-02-26T06:11:53;23.85;;;17.83;;
44120;SDS011;29783;52.504;13.478;2024-02-26T06:14:19;20.27;;;17.17;;
44120;SDS011;29783;52.504;13.478;2024-02-26T06:16:45;24.48;;;18.02;;
44120;SDS011;29783;52.504;13.478;2024-02-26T06:19:11;23.63;;;17.60;;
44120;SDS011;29783;52.504;13.478;2024-02-26T06:21:36;27.02;;;18.80;;
44120;SDS011;29783;52.504;13.478;2024-02-26T06:24:02;26.10;;;18.15;;
44120;SDS011;29783;52.504;13.478;2024-02-26T06:26:28;21.33;;;17.75;;
44120;SDS011;29783;52.504;13.478;2024-02-26T06:28:54;29.10;;;19.73;;
44120;SDS011;29783;52.504;13.478;2024-02-26T06:31:21;29.25;;;17.52;;
44120;SDS011;29783;52.504;13.478;2024-02-26T06:33:47;22.58;;;17.23;;
44120;SDS011;29783;52.504;13.478;2024-02-26T06:36:13;18.63;;;16.52;;
44120;SDS011;29783;52.504;13.478;2024-02-26T06:38:40;24.27;;;19.70;;
44120;SDS011;29783;52.504;13.478;2024-02-26T06:41:06;26.10;;;19.23;;
44120;SDS011;29783;52.504;13.478;2024-02-26T06:43:31;30.92;;;18.98;;
44120;SDS011;29783;52.504;13.478;2024-02-26T06:45:57;31.00;;;20.13;;
44120;SDS011;29783;52.504;13.478;2024-02-26T06:48:23;24.42;;;17.88;;
44120;SDS011;29783;52.504;13.478;2024-02-26T06:50:49;22.63;;;17.92;;
44120;SDS011;29783;52.504;13.478;2024-02-26T06:53:15;21.50;;;17.70;;
44120;SDS011;29783;52.504;13.478;2024-02-26T06:55:41;28.08;;;17.85;;
44120;SDS011;29783;52.504;13.478;2024-02-26T06:58:07;21.15;;;17.45;;
44120;SDS011;29783;52.504;13.478;2024-02-26T07:00:33;25.38;;;18.23;;
44120;SDS011;29783;52.504;13.478;2024-02-26T07:02:59;27.95;;;17.73;;
44120;SDS011;29783;52.504;13.478;2024-02-26T07:05:24;26.77;;;17.90;;
44120;SDS011;29783;52.504;13.478;2024-02-26T07:07:50;26.75;;;18.85;;
44120;SDS011;29783;52.504;13.478;2024-02-26T07:10:15;27.75;;;17.77;;
44120;SDS011;29783;52.504;13.478;2024-02-26T07:12:41;24.95;;;18.02;;
44120;SDS011;29783;52.504;13.478;2024-02-26T07:15:07;24.73;;;18.05;;
44120;SDS011;29783;52.504;13.478;2024-02-26T07:17:34;24.33;;;16.77;;
44120;SDS011;29783;52.504;13.478;2024-02-26T07:19:59;19.20;;;15.30;;
44120;SDS011;29783;52.504;13.478;2024-02-26T07:22:25;22.35;;;15.30;;
44120;SDS011;29783;52.504;13.478;2024-02-26T07:24:51;19.63;;;15.45;;
44120;SDS011;29783;52.504;13.478;2024-02-26T07:27:17;16.90;;;14.80;;
44120;SDS011;29783;52.504;13.478;2024-02-26T07:29:43;18.38;;;14.77;;
44120;SDS011;29783;52.504;13.478;2024-02-26T07:32:09;17.92;;;13.95;;
44120;SDS011;29783;52.504;13.478;2024-02-26T07:34:35;20.45;;;14.52;;
44120;SDS011;29783;52.504;13.478;2024-02-26T07:37:04;18.60;;;13.93;;
44120;SDS011;29783;52.504;13.478;2024-02-26T07:39:29;19.08;;;13.68;;
44120;SDS011;29783;52.504;13.478;2024-02-26T07:41:55;22.60;;;13.68;;
44120;SDS011;29783;52.504;13.478;2024-02-26T07:44:21;21.80;;;13.20;;
44120;SDS011;29783;52.504;13.478;2024-02-26T07:46:46;19.67;;;14.30;;
44120;SDS011;29783;52.504;13.478;2024-02-26T07:49:12;20.63;;;14.40;;
44120;SDS011;29783;52.504;13.478;2024-02-26T07:51:37;21.45;;;14.48;;
44120;SDS011;29783;52.504;13.478;2024-02-26T07:54:03;21.45;;;14.32;;
44120;SDS011;29783;52.504;13.478;2024-02-26T07:56:28;19.88;;;14.25;;
44120;SDS011;29783;52.504;13.478;2024-02-26T07:58:54;21.67;;;13.80;;
44120;SDS011;29783;52.504;13.478;2024-02-26T08:01:20;22.08;;;12.25;;
44120;SDS011;29783;52.504;13.478;2024-02-26T08:03:45;16.80;;;12.55;;
44120;SDS011;29783;52.504;13.478;2024-02-26T08:06:11;25.58;;;14.07;;
44120;SDS011;29783;52.504;13.478;2024-02-26T08:08:36;21.00;;;12.85;;
44120;SDS011;29783;52.504;13.478;2024-02-26T08:11:02;17.75;;;14.07;;
44120;SDS011;29783;52.504;13.478;2024-02-26T08:13:28;22.30;;;13.82;;
44120;SDS011;29783;52.504;13.478;2024-02-26T08:15:53;21.20;;;12.93;;
44120;SDS011;29783;52.504;13.478;2024-02-26T08:18:20;17.73;;;12.60;;
44120;SDS011;29783;52.504;13.478;2024-02-26T08:20:45;26.52;;;14.48;;
44120;SDS011;29783;52.504;13.478;2024-02-26T08:23:11;20.55;;;15.02;;
44120;SDS011;29783;52.504;13.478;2024-02-26T08:25:37;23.02;;;14.23;;
44120;SDS011;29783;52.504;13.478;2024-02-26T08:28:02;23.05;;;15.32;;
44120;SDS011;29783;52.504;13.478;2024-02-26T08:30:28;22.92;;;15.25;;
44120;SDS011;29783;52.504;13.478;2024-02-26T08:32:53;22.52;;;14.77;;
44120;SDS011;29783;52.504;13.478;2024-02-26T08:35:19;22.48;;;13.05;;
44120;SDS011;29783;52.504;13.478;2024-02-26T08:37:45;16.98;;;12.95;;
44120;SDS011;29783;52.504;13.478;2024-02-26T08:40:11;20.83;;;12.50;;
44120;SDS011;29783;52.504;13.478;2024-02-26T08:42:37;22.13;;;12.63;;
44120;SDS011;29783;52.504;13.478;2024-02-26T08:45:03;16.77;;;12.77;;
44120;SDS011;29783;52.504;13.478;2024-02-26T08:47:29;22.08;;;12.38;;
44120;SDS011;29783;52.504;13.478;2024-02-26T08:49:54;24.48;;;12.73;;
44120;SDS011;29783;52.504;13.478;2024-02-26T08:52:20;20.75;;;13.13;;
44120;SDS011;29783;52.504;13.478;2024-02-26T08:54:46;22.30;;;13.13;;
44120;SDS011;29783;52.504;13.478;2024-02-26T08:57:12;22.60;;;12.70;;
44120;SDS011;29783;52.504;13.478;2024-02-26T08:59:38;20.77;;;12.32;;
44120;SDS011;29783;52.504;13.478;2024-02-26T09:02:03;27.33;;;13.90;;
44120;SDS011;29783;52.504;13.478;2024-02-26T09:04:29;18.15;;;12.75;;
44120;SDS011;29783;52.504;13.478;2024-02-26T09:06:54;28.70;;;12.25;;
44120;SDS011;29783;52.504;13.478;2024-02-26T09:09:20;18.80;;;12.32;;
44120;SDS011;29783;52.504;13.478;2024-02-26T09:11:47;19.95;;;12.38;;
44120;SDS011;29783;52.504;13.478;2024-02-26T09:14:16;16.52;;;11.55;;
44120;SDS011;29783;52.504;13.478;2024-02-26T09:16:42;19.67;;;11.95;;
44120;SDS011;29783;52.504;13.478;2024-02-26T09:19:07;14.30;;;11.32;;
44120;SDS011;29783;52.504;13.478;2024-02-26T09:21:33;15.23;;;11.65;;
44120;SDS011;29783;52.504;13.478;2024-02-26T09:23:58;18.17;;;11.30;;
44120;SDS011;29783;52.504;13.478;2024-02-26T09:26:24;16.83;;;11.77;;
44120;SDS011;29783;52.504;13.478;2024-02-26T09:28:50;18.00;;;11.07;;
44120;SDS011;29783;52.504;13.478;2024-02-26T09:31:17;27.75;;;12.68;;
44120;SDS011;29783;52.504;13.478;2024-02-26T09:33:43;26.42;;;11.90;;
44120;SDS011;29783;52.504;13.478;2024-02-26T09:36:09;16.50;;;11.10;;
44120;SDS011;29783;52.504;13.478;2024-02-26T09:38:36;21.25;;;12.07;;
44120;SDS011;29783;52.504;13.478;2024-02-26T09:41:03;20.42;;;11.20;;
44120;SDS011;29783;52.504;13.478;2024-02-26T09:43:34;17.42;;;12.15;;
44120;SDS011;29783;52.504;13.478;2024-02-26T09:46:04;16.50;;;10.32;;
44120;SDS011;29783;52.504;13.478;2024-02-26T09:48:30;17.35;;;11.45;;
44120;SDS011;29783;52.504;13.478;2024-02-26T09:50:57;18.15;;;10.77;;
44120;SDS011;29783;52.504;13.478;2024-02-26T09:53:22;19.52;;;10.40;;
44120;SDS011;29783;52.504;13.478;2024-02-26T09:55:48;19.83;;;11.45;;
44120;SDS011;29783;52.504;13.478;2024-02-26T09:58:14;21.17;;;11.15;;
44120;SDS011;29783;52.504;13.478;2024-02-26T10:00:43;34.00;;;11.45;;
44120;SDS011;29783;52.504;13.478;2024-02-26T10:03:18;17.90;;;10.18;;
44120;SDS011;29783;52.504;13.478;2024-02-26T10:05:46;12.52;;;9.13;;
44120;SDS011;29783;52.504;13.478;2024-02-26T10:08:14;12.77;;;9.15;;
44120;SDS011;29783;52.504;13.478;2024-02-26T10:10:40;20.13;;;9.65;;
44120;SDS011;29783;52.504;13.478;2024-02-26T10:13:06;19.73;;;9.20;;
44120;SDS011;29783;52.504;13.478;2024-02-26T10:15:35;16.83;;;9.30;;
44120;SDS011;29783;52.504;13.478;2024-02-26T10:18:04;14.45;;;9.43;;
44120;SDS011;29783;52.504;13.478;2024-02-26T10:20:30;13.80;;;9.40;;
44120;SDS011;29783;52.504;13.478;2024-02-26T10:22:57;18.80;;;8.98;;
44120;SDS011;29783;52.504;13.478;2024-02-26T10:25:22;16.85;;;8.65;;
44120;SDS011;29783;52.504;13.478;2024-02-26T10:27:48;14.57;;;8.60;;
44120;SDS011;29783;52.504;13.478;2024-02-26T10:30:21;15.85;;;9.55;;
44120;SDS011;29783;52.504;13.478;2024-02-26T10:32:50;13.00;;;8.18;;
44120;SDS011;29783;52.504;13.478;2024-02-26T10:35:16;15.02;;;7.90;;
44120;SDS011;29783;52.504;13.478;2024-02-26T10:37:45;11.68;;;7.53;;
44120;SDS011;29783;52.504;13.478;2024-02-26T10:40:12;13.98;;;8.20;;
44120;SDS011;29783;52.504;13.478;2024-02-26T10:42:38;12.95;;;8.02;;
44120;SDS011;29783;52.504;13.478;2024-02-26T10:45:07;13.10;;;8.50;;
44120;SDS011;29783;52.504;13.478;2024-02-26T10:47:34;13.35;;;8.63;;
44120;SDS011;29783;52.504;13.478;2024-02-26T10:50:03;9.65;;;7.60;;
44120;SDS011;29783;52.504;13.478;2024-02-26T10:52:34;12.50;;;7.93;;
44120;SDS011;29783;52.504;13.478;2024-02-26T10:55:02;14.18;;;8.18;;
44120;SDS011;29783;52.504;13.478;2024-02-26T10:57:29;16.65;;;8.18;;
44120;SDS011;29783;52.504;13.478;2024-02-26T10:59:58;12.73;;;7.70;;
44120;SDS011;29783;52.504;13.478;2024-02-26T11:02:26;14.15;;;7.55;;
44120;SDS011;29783;52.504;13.478;2024-02-26T11:04:52;11.68;;;7.07;;
44120;SDS011;29783;52.504;13.478;2024-02-26T11:07:18;11.13;;;7.07;;
44120;SDS011;29783;52.504;13.478;2024-02-26T11:09:45;14.15;;;7.13;;
44120;SDS011;29783;52.504;13.478;2024-02-26T11:12:16;12.15;;;7.35;;
44120;SDS011;29783;52.504;13.478;2024-02-26T11:14:43;11.70;;;6.90;;
44120;SDS011;29783;52.504;13.478;2024-02-26T11:17:11;9.05;;;7.00;;
44120;SDS011;29783;52.504;13.478;2024-02-26T11:19:38;10.82;;;6.90;;
44120;SDS011;29783;52.504;13.478;2024-02-26T11:22:06;14.48;;;6.68;;
44120;SDS011;29783;52.504;13.478;2024-02-26T11:24:32;11.38;;;6.63;;
44120;SDS011;29783;52.504;13.478;2024-02-26T11:26:58;14.43;;;6.47;;
44120;SDS011;29783;52.504;13.478;2024-02-26T11:29:29;14.05;;;6.57;;
44120;SDS011;29783;52.504;13.478;2024-02-26T11:32:00;9.88;;;6.20;;
44120;SDS011;29783;52.504;13.478;2024-02-26T11:34:27;9.25;;;6.35;;
44120;SDS011;29783;52.504;13.478;2024-02-26T11:36:53;10.57;;;6.40;;
44120;SDS011;29783;52.504;13.478;2024-02-26T11:39:19;8.95;;;6.13;;
44120;SDS011;29783;52.504;13.478;2024-02-26T11:41:45;9.35;;;6.75;;
44120;SDS011;29783;52.504;13.478;2024-02-26T11:44:11;9.00;;;6.38;;
44120;SDS011;29783;52.504;13.478;2024-02-26T11:46:40;13.50;;;6.43;;
44120;SDS011;29783;52.504;13.478;2024-02-26T11:51:55;10.35;;;6.55;;
44120;SDS011;29783;52.504;13.478;2024-02-26T11:54:44;10.27;;;6.75;;
44120;SDS011;29783;52.504;13.478;2024-02-26T11:57:29;12.07;;;6.80;;
44120;SDS011;29783;52.504;13.478;2024-02-26T12:02:44;12.02;;;7.05;;
44120;SDS011;29783;52.504;13.478;2024-02-26T12:05:23;16.15;;;6.95;;
44120;SDS011;29783;52.504;13.478;2024-02-26T12:07:51;13.27;;;7.63;;
44120;SDS011;29783;52.504;13.478;2024-02-26T12:10:30;16.00;;;6.50;;
44120;SDS011;29783;52.504;13.478;2024-02-26T12:13:02;14.93;;;7.20;;
44120;SDS011;29783;52.504;13.478;2024-02-26T12:15:38;10.30;;;6.40;;
44120;SDS011;29783;52.504;13.478;2024-02-26T12:18:07;16.65;;;6.32;;
44120;SDS011;29783;52.504;13.478;2024-02-26T12:20:35;8.40;;;5.93;;
44120;SDS011;29783;52.504;13.478;2024-02-26T12:23:01;10.02;;;5.18;;
44120;SDS011;29783;52.504;13.478;2024-02-26T12:25:29;10.98;;;5.88;;
44120;SDS011;29783;52.504;13.478;2024-02-26T12:27:56;8.45;;;5.20;;
44120;SDS011;29783;52.504;13.478;2024-02-26T12:30:22;11.32;;;5.68;;
44120;SDS011;29783;52.504;13.478;2024-02-26T12:32:49;10.63;;;5.80;;
44120;SDS011;29783;52.504;13.478;2024-02-26T12:35:16;13.48;;;7.28;;
44120;SDS011;29783;52.504;13.478;2024-02-26T12:37:42;13.68;;;8.10;;
44120;SDS011;29783;52.504;13.478;2024-02-26T12:40:09;10.27;;;6.78;;
44120;SDS011;29783;52.504;13.478;2024-02-26T12:42:35;10.98;;;6.95;;
44120;SDS011;29783;52.504;13.478;2024-02-26T12:45:05;15.05;;;7.57;;
44120;SDS011;29783;52.504;13.478;2024-02-26T12:47:38;12.77;;;5.97;;
44120;SDS011;29783;52.504;13.478;2024-02-26T12:50:05;9.13;;;5.47;;
44120;SDS011;29783;52.504;13.478;2024-02-26T12:52:37;12.48;;;7.30;;
44120;SDS011;29783;52.504;13.478;2024-02-26T12:55:06;12.80;;;5.22;;
44120;SDS011;29783;52.504;13.478;2024-02-26T12:57:38;11.15;;;6.40;;
44120;SDS011;29783;52.504;13.478;2024-02-26T13:00:07;8.75;;;4.95;;
44120;SDS011;29783;52.504;13.478;2024-02-26T13:02:35;15.15;;;6.82;;
44120;SDS011;29783;52.504;13.478;2024-02-26T13:05:02;15.05;;;6.72;;
44120;SDS011;29783;52.504;13.478;2024-02-26T13:07:30;10.75;;;5.85;;
44120;SDS011;29783;52.504;13.478;2024-02-26T13:09:56;9.48;;;6.78;;
44120;SDS011;29783;52.504;13.478;2024-02-26T13:12:22;16.13;;;6.50;;
44120;SDS011;29783;52.504;13.478;2024-02-26T13:14:58;10.57;;;6.05;;
44120;SDS011;29783;52.504;13.478;2024-02-26T13:17:24;12.88;;;7.53;;
44120;SDS011;29783;52.504;13.478;2024-02-26T13:19:52;12.45;;;6.50;;
44120;SDS011;29783;52.504;13.478;2024-02-26T13:22:20;10.20;;;5.75;;
44120;SDS011;29783;52.504;13.478;2024-02-26T13:24:52;9.05;;;6.00;;
44120;SDS011;29783;52.504;13.478;2024-02-26T13:27:23;9.93;;;6.05;;
44120;SDS011;29783;52.504;13.478;2024-02-26T13:29:49;8.18;;;5.32;;
44120;SDS011;29783;52.504;13.478;2024-02-26T13:32:26;10.77;;;5.60;;
44120;SDS011;29783;52.504;13.478;2024-02-26T13:35:03;10.70;;;5.40;;
44120;SDS011;29783;52.504;13.478;2024-02-26T13:37:34;9.93;;;5.30;;
44120;SDS011;29783;52.504;13.478;2024-02-26T13:40:06;9.95;;;5.18;;
44120;SDS011;29783;52.504;13.478;2024-02-26T13:42:34;6.53;;;4.53;;
44120;SDS011;29783;52.504;13.478;2024-02-26T13:45:00;14.77;;;5.00;;
44120;SDS011;29783;52.504;13.478;2024-02-26T13:47:26;10.10;;;5.53;;
44120;SDS011;29783;52.504;13.478;2024-02-26T13:49:52;10.35;;;5.32;;
44120;SDS011;29783;52.504;13.478;2024-02-26T13:52:17;10.60;;;5.55;;
44120;SDS011;29783;52.504;13.478;2024-02-26T13:54:45;7.22;;;5.25;;
44120;SDS011;29783;52.504;13.478;2024-02-26T13:57:11;10.20;;;5.72;;
44120;SDS011;29783;52.504;13.478;2024-02-26T13:59:36;13.45;;;6.00;;
44120;SDS011;29783;52.504;13.478;2024-02-26T14:02:02;6.00;;;4.63;;
44120;SDS011;29783;52.504;13.478;2024-02-26T14:04:29;12.85;;;5.45;;
44120;SDS011;29783;52.504;13.478;2024-02-26T14:06:54;10.55;;;5.50;;
44120;SDS011;29783;52.504;13.478;2024-02-26T14:09:20;10.80;;;5.20;;
44120;SDS011;29783;52.504;13.478;2024-02-26T14:11:45;12.40;;;5.38;;
44120;SDS011;29783;52.504;13.478;2024-02-26T14:14:11;8.68;;;5.07;;
44120;SDS011;29783;52.504;13.478;2024-02-26T14:16:37;8.18;;;4.97;;
44120;SDS011;29783;52.504;13.478;2024-02-26T14:19:02;10.23;;;5.28;;
44120;SDS011;29783;52.504;13.478;2024-02-26T14:21:28;7.78;;;5.30;;